Cranberry Lake, New York
Current Conditions -  °F | °C
As of 11:51 AM on Wednesday 22 Oct 2014 (Local Time) from KSLK Reporting Station
Haze Haze  
Wind Chill: 36°   Ceiling: 300
Heat Index: 40°   Visibility: 4mi
Dew Point: 40°   Wind: 6mph
Humidity: 100%   Direction: 40°NE
Pressure: 30.18"   Gusts: NA
Location:  44.22°N, 74.84°W
Report Text: KSLK 221551Z AUTO 04005KT 4SM BR OVC003 04/04 A3018 RMK AO2 SLP230 T00440044
Loading
Personal Weather Stations






























Interactive Weather Map
Tropical Storm Tracking
New forecast layout! Learn more

10-Day Weather Forecast

Advertisements
Track Severe Weather on mobile